Fortune Amaryllis — VRDT3 — position and weather

sailwx.info

Track history (hours):
 
Tides and Currents Weather Stations Pressure Air Temp Water Temp Dewpoint Dewpoint Depression Visibility Wind Speed Wind Dir Waves Ship Positions

Fortune Amaryllis

Last reported at 2017-May-12 13:04 UTC. Time now 2017-Jun-26 23:56 UTC.
Position S 32°58' E 152°34'.
Warning: this ship's position is 45 days out of date.

Length 175 m; draft 5.9 m.

Type: Cargo ship. MMSI: 477046800.

Date/timePositionNaut miles runAvg speedWind from/ knotsBaromVisibWave heightAir tempDewpointWater temp
2017-May-12 13:04S 32°58' E 152°34'210.9
2017-May-12 12:53S 32°58' E 152°32'410.9
2017-May-12 12:30S 32°58' E 152°27'611.0
2017-May-12 12:00S 32°58' E 152°20'510.9
2017-May-12 11:30S 32°58' E 152°14'510.9
2017-May-12 11:00S 32°57' E 152°07'611.2
2017-May-12 10:30S 32°57' E 152°01'611.6
2017-May-12 10:00S 32°57' E 151°54'5 9.4
2017-May-12 09:30S 32°55' E 151°49'2 3.7
2017-May-12 09:00S 32°54' E 151°46'1 1.8
2017-May-12 08:27S 32°53' E 151°46'0 0.0
2017-May-12 08:00S 32°53' E 151°46'0 0.0
2017-May-12 07:27S 32°53' E 151°46'0 0.0
2017-May-12 07:00S 32°53' E 151°46'0 0.0
2017-May-12 06:30S 32°53' E 151°46'0 0.0
2017-May-12 06:00S 32°53' E 151°46'0 0.0
2017-May-12 05:21S 32°53' E 151°46'0 0.0
2017-May-12 04:57S 32°53' E 151°46'0 0.0
2017-May-12 04:27S 32°53' E 151°46'0 0.0
2017-May-12 03:57S 32°53' E 151°46'0 0.0
2017-May-12 03:30S 32°53' E 151°46'0 0.0
2017-May-12 03:00S 32°53' E 151°46'0 0.0
2017-May-12 02:30S 32°53' E 151°46'0 0.0
2017-May-12 02:00S 32°53' E 151°46'0 0.0
2017-May-12 01:27S 32°53' E 151°46'0 0.0
2017-May-12 01:00S 32°53' E 151°46'0 0.0
2017-May-12 00:30S 32°53' E 151°46'0 0.0
2017-May-11 23:57S 32°53' E 151°46'0 0.0
2017-May-11 23:21S 32°53' E 151°46'0 0.0
2017-May-11 22:57S 32°53' E 151°46'0 0.0
2017-May-11 22:27S 32°53' E 151°46'0 0.0
2017-May-11 22:00S 32°53' E 151°46'0 0.0
2017-May-11 21:27S 32°53' E 151°46'0 0.0
2017-May-11 20:54S 32°53' E 151°46'0 0.0
2017-May-11 20:30S 32°53' E 151°46'0 0.0
2017-May-11 19:51S 32°53' E 151°46'0 0.0
2017-May-11 19:30S 32°53' E 151°46'0 0.0
2017-May-11 18:57S 32°53' E 151°46'0 0.0
2017-May-11 18:27S 32°53' E 151°46'0 0.0
2017-May-11 17:51S 32°53' E 151°46'0 0.0
2017-May-11 17:27S 32°53' E 151°46'0 0.0
2017-May-11 17:00S 32°53' E 151°46'0 0.0
2017-May-11 16:21S 32°53' E 151°46'0 0.0
2017-May-11 15:57S 32°53' E 151°46'0 0.0
2017-May-11 15:30S 32°53' E 151°46'0 0.0
2017-May-11 14:48S 32°53' E 151°46'0 0.0
2017-May-11 14:30S 32°53' E 151°46'0 0.0
2017-May-11 13:27S 32°53' E 151°46'0 0.0
2017-May-11 12:57S 32°53' E 151°46'0 0.0
2017-May-11 12:30S 32°53' E 151°46'0 0.0
2017-May-11 12:00S 32°53' E 151°46'0 0.0
2017-May-11 11:21S 32°53' E 151°46'0 0.0
2017-May-11 11:00S 32°53' E 151°46'0 0.0
2017-May-11 10:30S 32°53' E 151°46'0 0.0
2017-May-11 10:00S 32°53' E 151°46'0 0.0
2017-May-11 09:30S 32°53' E 151°46'0 0.0
2017-May-11 09:00S 32°53' E 151°46'0 0.0
2017-May-11 08:27S 32°53' E 151°46'0 0.0
2017-May-11 08:00S 32°53' E 151°46'0 0.0
2017-May-11 07:30S 32°53' E 151°46'0 0.0
2017-May-11 06:57S 32°53' E 151°46'0 0.0
2017-May-11 06:30S 32°53' E 151°46'0 0.0
2017-May-11 05:51S 32°53' E 151°46'0 0.0
2017-May-11 05:24S 32°53' E 151°46'0 0.0
2017-May-11 05:00S 32°53' E 151°46'0 0.0
2017-May-11 04:30S 32°53' E 151°46'0 0.0
2017-May-11 03:57S 32°53' E 151°46'0 0.0
2017-May-11 03:30S 32°53' E 151°46'0 0.0
2017-May-11 03:00S 32°53' E 151°46'0 0.4
2017-May-11 02:31S 32°54' E 151°46'2 3.9
2017-May-11 02:01S 32°55' E 151°47'4 7.4
2017-May-11 01:30S 32°56' E 151°52'3 5.3
2017-May-11 01:00S 32°58' E 151°54'3 5.3
2017-May-11 00:30S 32°57' E 151°57'611.3
2017-May-11 00:00S 32°56' E 152°04'612.1
2017-May-10 23:30S 32°55' E 152°11'611.2
2017-May-10 23:00S 32°53' E 152°17'3 6.3
2017-May-10 22:30S 32°52' E 152°21'2 4.7
2017-May-10 22:01S 32°51' E 152°23'510.5
2017-May-10 21:30S 32°49' E 152°29'611.6
2017-May-10 21:00S 32°48' E 152°36'611.6
2017-May-10 20:30S 32°46' E 152°42'711.7
2017-May-10 19:54S 32°44' E 152°50'411.2
2017-May-10 19:30S 32°43' E 152°56'  
Track history (hours):
 
Tides and Currents Weather Stations Pressure Air Temp Water Temp Dewpoint Dewpoint Depression Visibility Wind Speed Wind Dir Waves Ship Positions

Fortune Amaryllis

Last reported at 2017-May-12 13:04 UTC. Time now 2017-Jun-26 23:56 UTC.
Position S 32°58' E 152°34'.
Warning: this ship's position is 45 days out of date.

Length 175 m; draft 5.9 m.

Type: Cargo ship. MMSI: 477046800.

Date/timePositionNaut miles runAvg speedWind from/ knotsBaromVisibWave heightAir tempDewpointWater temp
2017-May-12 13:04S 32°58' E 152°34'210.9
2017-May-12 12:53S 32°58' E 152°32'410.9
2017-May-12 12:30S 32°58' E 152°27'611.0
2017-May-12 12:00S 32°58' E 152°20'510.9
2017-May-12 11:30S 32°58' E 152°14'510.9
2017-May-12 11:00S 32°57' E 152°07'611.2
2017-May-12 10:30S 32°57' E 152°01'611.6
2017-May-12 10:00S 32°57' E 151°54'5 9.4
2017-May-12 09:30S 32°55' E 151°49'2 3.7
2017-May-12 09:00S 32°54' E 151°46'1 1.8
2017-May-12 08:27S 32°53' E 151°46'0 0.0
2017-May-12 08:00S 32°53' E 151°46'0 0.0
2017-May-12 07:27S 32°53' E 151°46'0 0.0
2017-May-12 07:00S 32°53' E 151°46'0 0.0
2017-May-12 06:30S 32°53' E 151°46'0 0.0
2017-May-12 06:00S 32°53' E 151°46'0 0.0
2017-May-12 05:21S 32°53' E 151°46'0 0.0
2017-May-12 04:57S 32°53' E 151°46'0 0.0
2017-May-12 04:27S 32°53' E 151°46'0 0.0
2017-May-12 03:57S 32°53' E 151°46'0 0.0
2017-May-12 03:30S 32°53' E 151°46'0 0.0
2017-May-12 03:00S 32°53' E 151°46'0 0.0
2017-May-12 02:30S 32°53' E 151°46'0 0.0
2017-May-12 02:00S 32°53' E 151°46'0 0.0
2017-May-12 01:27S 32°53' E 151°46'0 0.0
2017-May-12 01:00S 32°53' E 151°46'0 0.0
2017-May-12 00:30S 32°53' E 151°46'0 0.0
2017-May-11 23:57S 32°53' E 151°46'0 0.0
2017-May-11 23:21S 32°53' E 151°46'0 0.0
2017-May-11 22:57S 32°53' E 151°46'0 0.0
2017-May-11 22:27S 32°53' E 151°46'0 0.0
2017-May-11 22:00S 32°53' E 151°46'0 0.0
2017-May-11 21:27S 32°53' E 151°46'0 0.0
2017-May-11 20:54S 32°53' E 151°46'0 0.0
2017-May-11 20:30S 32°53' E 151°46'0 0.0
2017-May-11 19:51S 32°53' E 151°46'0 0.0
2017-May-11 19:30S 32°53' E 151°46'0 0.0
2017-May-11 18:57S 32°53' E 151°46'0 0.0
2017-May-11 18:27S 32°53' E 151°46'0 0.0
2017-May-11 17:51S 32°53' E 151°46'0 0.0
2017-May-11 17:27S 32°53' E 151°46'0 0.0
2017-May-11 17:00S 32°53' E 151°46'0 0.0
2017-May-11 16:21S 32°53' E 151°46'0 0.0
2017-May-11 15:57S 32°53' E 151°46'0 0.0
2017-May-11 15:30S 32°53' E 151°46'0 0.0
2017-May-11 14:48S 32°53' E 151°46'0 0.0
2017-May-11 14:30S 32°53' E 151°46'0 0.0
2017-May-11 13:27S 32°53' E 151°46'0 0.0
2017-May-11 12:57S 32°53' E 151°46'0 0.0
2017-May-11 12:30S 32°53' E 151°46'0 0.0
2017-May-11 12:00S 32°53' E 151°46'0 0.0
2017-May-11 11:21S 32°53' E 151°46'0 0.0
2017-May-11 11:00S 32°53' E 151°46'0 0.0
2017-May-11 10:30S 32°53' E 151°46'0 0.0
2017-May-11 10:00S 32°53' E 151°46'0 0.0
2017-May-11 09:30S 32°53' E 151°46'0 0.0
2017-May-11 09:00S 32°53' E 151°46'0 0.0
2017-May-11 08:27S 32°53' E 151°46'0 0.0
2017-May-11 08:00S 32°53' E 151°46'0 0.0
2017-May-11 07:30S 32°53' E 151°46'0 0.0
2017-May-11 06:57S 32°53' E 151°46'0 0.0
2017-May-11 06:30S 32°53' E 151°46'0 0.0
2017-May-11 05:51S 32°53' E 151°46'0 0.0
2017-May-11 05:24S 32°53' E 151°46'0 0.0
2017-May-11 05:00S 32°53' E 151°46'0 0.0
2017-May-11 04:30S 32°53' E 151°46'0 0.0
2017-May-11 03:57S 32°53' E 151°46'0 0.0
2017-May-11 03:30S 32°53' E 151°46'0 0.0
2017-May-11 03:00S 32°53' E 151°46'0 0.4
2017-May-11 02:31S 32°54' E 151°46'2 3.9
2017-May-11 02:01S 32°55' E 151°47'4 7.4
2017-May-11 01:30S 32°56' E 151°52'3 5.3
2017-May-11 01:00S 32°58' E 151°54'3 5.3
2017-May-11 00:30S 32°57' E 151°57'611.3
2017-May-11 00:00S 32°56' E 152°04'612.1
2017-May-10 23:30S 32°55' E 152°11'611.2
2017-May-10 23:00S 32°53' E 152°17'3 6.3
2017-May-10 22:30S 32°52' E 152°21'2 4.7
2017-May-10 22:01S 32°51' E 152°23'510.5
2017-May-10 21:30S 32°49' E 152°29'611.6
2017-May-10 21:00S 32°48' E 152°36'611.6
2017-May-10 20:30S 32°46' E 152°42'711.7
2017-May-10 19:54S 32°44' E 152°50'411.2
2017-May-10 19:30S 32°43' E 152°56'  

Dump ship's entire track history